sensor_id;sensor_type;location;lat;lon;timestamp;temperature;humidity
1812;DHT22;904;47.814;11.134;2022-11-30T00:02:01;7.00;97.70
1812;DHT22;904;47.814;11.134;2022-11-30T00:04:31;7.00;97.70
1812;DHT22;904;47.814;11.134;2022-11-30T00:07:00;7.00;97.70
1812;DHT22;904;47.814;11.134;2022-11-30T00:09:27;7.00;97.70
1812;DHT22;904;47.814;11.134;2022-11-30T00:11:57;6.90;97.60
1812;DHT22;904;47.814;11.134;2022-11-30T00:14:28;6.90;97.60
1812;DHT22;904;47.814;11.134;2022-11-30T00:16:56;6.90;98.10
1812;DHT22;904;47.814;11.134;2022-11-30T00:19:29;6.90;97.70
1812;DHT22;904;47.814;11.134;2022-11-30T00:21:57;6.90;97.70
1812;DHT22;904;47.814;11.134;2022-11-30T00:24:30;6.90;97.80
1812;DHT22;904;47.814;11.134;2022-11-30T00:27:02;6.90;97.60
1812;DHT22;904;47.814;11.134;2022-11-30T00:29:29;6.80;97.60
1812;DHT22;904;47.814;11.134;2022-11-30T00:32:02;6.90;97.70
1812;DHT22;904;47.814;11.134;2022-11-30T00:34:31;6.80;97.70
1812;DHT22;904;47.814;11.134;2022-11-30T00:36:59;6.80;97.70
1812;DHT22;904;47.814;11.134;2022-11-30T00:39:30;6.80;97.60
1812;DHT22;904;47.814;11.134;2022-11-30T00:41:59;6.80;97.70
1812;DHT22;904;47.814;11.134;2022-11-30T00:44:29;6.80;97.50
1812;DHT22;904;47.814;11.134;2022-11-30T00:46:59;6.80;97.40
1812;DHT22;904;47.814;11.134;2022-11-30T00:49:32;6.80;97.40
1812;DHT22;904;47.814;11.134;2022-11-30T00:52:01;6.80;97.40
1812;DHT22;904;47.814;11.134;2022-11-30T00:54:36;6.70;97.40
1812;DHT22;904;47.814;11.134;2022-11-30T00:57:06;6.70;97.30
1812;DHT22;904;47.814;11.134;2022-11-30T00:59:40;6.70;97.10
1812;DHT22;904;47.814;11.134;2022-11-30T01:02:09;6.70;97.00
1812;DHT22;904;47.814;11.134;2022-11-30T01:04:38;6.70;96.80
1812;DHT22;904;47.814;11.134;2022-11-30T01:07:05;6.60;96.70
1812;DHT22;904;47.814;11.134;2022-11-30T01:09:33;6.60;96.60
1812;DHT22;904;47.814;11.134;2022-11-30T01:12:01;6.60;96.70
1812;DHT22;904;47.814;11.134;2022-11-30T01:14:29;6.60;96.70
1812;DHT22;904;47.814;11.134;2022-11-30T01:16:59;6.60;96.70
1812;DHT22;904;47.814;11.134;2022-11-30T01:19:32;6.60;96.50
1812;DHT22;904;47.814;11.134;2022-11-30T01:22:06;6.60;96.50
1812;DHT22;904;47.814;11.134;2022-11-30T01:24:37;6.60;96.30
1812;DHT22;904;47.814;11.134;2022-11-30T01:27:06;6.60;96.30
1812;DHT22;904;47.814;11.134;2022-11-30T01:29:33;6.60;96.30
1812;DHT22;904;47.814;11.134;2022-11-30T01:32:01;6.50;96.40
1812;DHT22;904;47.814;11.134;2022-11-30T01:34:42;6.50;96.60
1812;DHT22;904;47.814;11.134;2022-11-30T01:37:11;6.50;96.70
1812;DHT22;904;47.814;11.134;2022-11-30T01:39:40;6.50;96.50
1812;DHT22;904;47.814;11.134;2022-11-30T01:42:16;6.50;96.60
1812;DHT22;904;47.814;11.134;2022-11-30T01:44:59;6.40;96.60
1812;DHT22;904;47.814;11.134;2022-11-30T01:47:29;6.50;96.60
1812;DHT22;904;47.814;11.134;2022-11-30T01:50:04;6.40;96.10
1812;DHT22;904;47.814;11.134;2022-11-30T01:52:40;6.40;96.20
1812;DHT22;904;47.814;11.134;2022-11-30T01:55:16;6.40;96.10
1812;DHT22;904;47.814;11.134;2022-11-30T01:57:54;6.40;96.10
1812;DHT22;904;47.814;11.134;2022-11-30T02:00:28;6.30;96.30
1812;DHT22;904;47.814;11.134;2022-11-30T02:03:05;6.30;96.30
1812;DHT22;904;47.814;11.134;2022-11-30T02:05:40;6.30;96.40
1812;DHT22;904;47.814;11.134;2022-11-30T02:08:11;6.30;96.50
1812;DHT22;904;47.814;11.134;2022-11-30T02:10:46;6.20;96.60
1812;DHT22;904;47.814;11.134;2022-11-30T02:13:40;6.20;96.60
1812;DHT22;904;47.814;11.134;2022-11-30T02:16:22;6.20;96.60
1812;DHT22;904;47.814;11.134;2022-11-30T02:22:05;6.20;96.50
1812;DHT22;904;47.814;11.134;2022-11-30T02:24:49;6.20;96.60
1812;DHT22;904;47.814;11.134;2022-11-30T02:27:44;6.20;96.60
1812;DHT22;904;47.814;11.134;2022-11-30T02:30:22;6.20;96.60
1812;DHT22;904;47.814;11.134;2022-11-30T02:32:56;6.20;96.60
1812;DHT22;904;47.814;11.134;2022-11-30T02:35:28;6.20;96.80
1812;DHT22;904;47.814;11.134;2022-11-30T02:38:02;6.20;96.70
1812;DHT22;904;47.814;11.134;2022-11-30T02:40:31;6.20;96.70
1812;DHT22;904;47.814;11.134;2022-11-30T02:43:07;6.20;96.60
1812;DHT22;904;47.814;11.134;2022-11-30T02:45:43;6.20;96.50
1812;DHT22;904;47.814;11.134;2022-11-30T02:48:26;6.20;96.30
1812;DHT22;904;47.814;11.134;2022-11-30T02:51:03;6.10;96.10
1812;DHT22;904;47.814;11.134;2022-11-30T02:53:33;6.10;96.00
1812;DHT22;904;47.814;11.134;2022-11-30T02:58:54;6.10;95.80
1812;DHT22;904;47.814;11.134;2022-11-30T03:01:28;6.10;95.90
1812;DHT22;904;47.814;11.134;2022-11-30T03:03:57;6.10;96.10
1812;DHT22;904;47.814;11.134;2022-11-30T03:06:26;6.00;96.00
1812;DHT22;904;47.814;11.134;2022-11-30T03:08:58;6.10;96.10
1812;DHT22;904;47.814;11.134;2022-11-30T03:11:28;6.10;95.90
1812;DHT22;904;47.814;11.134;2022-11-30T03:14:02;6.00;95.90
1812;DHT22;904;47.814;11.134;2022-11-30T03:16:32;6.10;96.00
1812;DHT22;904;47.814;11.134;2022-11-30T03:19:04;6.10;95.70
1812;DHT22;904;47.814;11.134;2022-11-30T03:21:33;6.00;95.60
1812;DHT22;904;47.814;11.134;2022-11-30T03:24:01;6.00;95.40
1812;DHT22;904;47.814;11.134;2022-11-30T03:26:32;6.00;95.30
1812;DHT22;904;47.814;11.134;2022-11-30T03:29:05;6.00;95.20
1812;DHT22;904;47.814;11.134;2022-11-30T03:31:36;6.00;95.10
1812;DHT22;904;47.814;11.134;2022-11-30T03:34:10;6.00;95.20
1812;DHT22;904;47.814;11.134;2022-11-30T03:36:46;6.00;94.70
1812;DHT22;904;47.814;11.134;2022-11-30T03:39:16;5.90;94.60
1812;DHT22;904;47.814;11.134;2022-11-30T03:41:49;5.90;94.60
1812;DHT22;904;47.814;11.134;2022-11-30T03:44:21;5.90;94.60
1812;DHT22;904;47.814;11.134;2022-11-30T03:47:04;5.80;94.50
1812;DHT22;904;47.814;11.134;2022-11-30T03:49:40;5.70;94.50
1812;DHT22;904;47.814;11.134;2022-11-30T03:52:09;5.70;94.70
1812;DHT22;904;47.814;11.134;2022-11-30T03:54:44;5.70;94.60
1812;DHT22;904;47.814;11.134;2022-11-30T03:57:17;5.70;94.30
1812;DHT22;904;47.814;11.134;2022-11-30T03:59:45;5.70;94.50
1812;DHT22;904;47.814;11.134;2022-11-30T04:02:17;5.70;94.50
1812;DHT22;904;47.814;11.134;2022-11-30T04:04:45;5.70;94.20
1812;DHT22;904;47.814;11.134;2022-11-30T04:07:17;5.70;94.10
1812;DHT22;904;47.814;11.134;2022-11-30T04:09:45;5.70;94.10
1812;DHT22;904;47.814;11.134;2022-11-30T04:12:22;5.60;94.10
1812;DHT22;904;47.814;11.134;2022-11-30T04:14:57;5.60;94.30
1812;DHT22;904;47.814;11.134;2022-11-30T04:17:27;5.60;94.30
1812;DHT22;904;47.814;11.134;2022-11-30T04:20:01;5.60;94.20
1812;DHT22;904;47.814;11.134;2022-11-30T04:22:28;5.60;93.90
1812;DHT22;904;47.814;11.134;2022-11-30T04:25:00;5.60;93.50
1812;DHT22;904;47.814;11.134;2022-11-30T04:27:30;5.50;93.50
1812;DHT22;904;47.814;11.134;2022-11-30T04:29:59;5.50;93.70
1812;DHT22;904;47.814;11.134;2022-11-30T04:32:28;5.50;93.50
1812;DHT22;904;47.814;11.134;2022-11-30T04:34:58;5.50;93.80
1812;DHT22;904;47.814;11.134;2022-11-30T04:37:26;5.40;94.00
1812;DHT22;904;47.814;11.134;2022-11-30T04:39:56;5.40;94.10
1812;DHT22;904;47.814;11.134;2022-11-30T04:42:26;5.40;94.20
1812;DHT22;904;47.814;11.134;2022-11-30T04:44:56;5.40;94.30
1812;DHT22;904;47.814;11.134;2022-11-30T04:47:30;5.40;94.20
1812;DHT22;904;47.814;11.134;2022-11-30T04:49:57;5.40;94.20
1812;DHT22;904;47.814;11.134;2022-11-30T04:52:25;5.40;94.10
1812;DHT22;904;47.814;11.134;2022-11-30T04:55:10;5.40;94.20
1812;DHT22;904;47.814;11.134;2022-11-30T04:57:40;5.30;94.20
1812;DHT22;904;47.814;11.134;2022-11-30T05:00:11;5.30;94.30
1812;DHT22;904;47.814;11.134;2022-11-30T05:02:45;5.30;94.30
1812;DHT22;904;47.814;11.134;2022-11-30T05:05:13;5.30;94.50
1812;DHT22;904;47.814;11.134;2022-11-30T05:07:43;5.30;94.40
1812;DHT22;904;47.814;11.134;2022-11-30T05:10:16;5.30;94.40
1812;DHT22;904;47.814;11.134;2022-11-30T05:12:44;5.30;94.30
1812;DHT22;904;47.814;11.134;2022-11-30T05:15:13;5.20;94.00
1812;DHT22;904;47.814;11.134;2022-11-30T05:17:44;5.30;94.40
1812;DHT22;904;47.814;11.134;2022-11-30T05:20:14;5.30;94.40
1812;DHT22;904;47.814;11.134;2022-11-30T05:22:48;5.20;94.50
1812;DHT22;904;47.814;11.134;2022-11-30T05:25:21;5.20;94.60
1812;DHT22;904;47.814;11.134;2022-11-30T05:27:49;5.20;94.70
1812;DHT22;904;47.814;11.134;2022-11-30T05:30:24;5.20;94.60
1812;DHT22;904;47.814;11.134;2022-11-30T05:32:56;5.20;94.60
1812;DHT22;904;47.814;11.134;2022-11-30T05:35:28;5.30;94.50
1812;DHT22;904;47.814;11.134;2022-11-30T05:37:55;5.20;94.40
1812;DHT22;904;47.814;11.134;2022-11-30T05:40:28;5.20;94.50
1812;DHT22;904;47.814;11.134;2022-11-30T05:42:58;5.20;94.50
1812;DHT22;904;47.814;11.134;2022-11-30T05:45:26;5.20;94.50
1812;DHT22;904;47.814;11.134;2022-11-30T05:47:53;5.20;94.60
1812;DHT22;904;47.814;11.134;2022-11-30T05:50:21;5.20;94.80
1812;DHT22;904;47.814;11.134;2022-11-30T05:52:51;5.20;94.60
1812;DHT22;904;47.814;11.134;2022-11-30T05:55:21;5.20;94.30
1812;DHT22;904;47.814;11.134;2022-11-30T05:57:49;5.20;94.40
1812;DHT22;904;47.814;11.134;2022-11-30T06:00:23;5.20;94.10
1812;DHT22;904;47.814;11.134;2022-11-30T06:02:56;5.20;94.00
1812;DHT22;904;47.814;11.134;2022-11-30T06:05:26;5.10;93.90
1812;DHT22;904;47.814;11.134;2022-11-30T06:08:04;5.10;94.10
1812;DHT22;904;47.814;11.134;2022-11-30T06:10:37;5.20;94.30
1812;DHT22;904;47.814;11.134;2022-11-30T06:13:15;5.10;94.00
1812;DHT22;904;47.814;11.134;2022-11-30T06:15:43;5.10;93.90
1812;DHT22;904;47.814;11.134;2022-11-30T06:18:13;5.10;93.90
1812;DHT22;904;47.814;11.134;2022-11-30T06:20:43;5.10;93.90
1812;DHT22;904;47.814;11.134;2022-11-30T06:23:12;5.10;94.10
1812;DHT22;904;47.814;11.134;2022-11-30T06:25:40;5.00;94.30
1812;DHT22;904;47.814;11.134;2022-11-30T06:28:08;5.00;94.40
1812;DHT22;904;47.814;11.134;2022-11-30T06:30:37;5.00;94.40
1812;DHT22;904;47.814;11.134;2022-11-30T06:33:08;5.00;94.50
1812;DHT22;904;47.814;11.134;2022-11-30T06:35:36;5.00;94.50
1812;DHT22;904;47.814;11.134;2022-11-30T06:38:06;5.00;94.30
1812;DHT22;904;47.814;11.134;2022-11-30T06:40:40;5.00;94.50
1812;DHT22;904;47.814;11.134;2022-11-30T06:43:12;5.00;94.40
1812;DHT22;904;47.814;11.134;2022-11-30T06:45:45;5.00;94.50
1812;DHT22;904;47.814;11.134;2022-11-30T06:48:16;5.00;94.70
1812;DHT22;904;47.814;11.134;2022-11-30T06:50:49;5.00;94.60
1812;DHT22;904;47.814;11.134;2022-11-30T06:53:21;5.00;94.60
1812;DHT22;904;47.814;11.134;2022-11-30T06:55:50;5.00;94.70
1812;DHT22;904;47.814;11.134;2022-11-30T06:58:17;5.00;94.80
1812;DHT22;904;47.814;11.134;2022-11-30T07:00:49;5.10;94.80
1812;DHT22;904;47.814;11.134;2022-11-30T07:03:18;5.10;94.90
1812;DHT22;904;47.814;11.134;2022-11-30T07:05:48;5.00;94.90
1812;DHT22;904;47.814;11.134;2022-11-30T07:08:17;5.00;95.00
1812;DHT22;904;47.814;11.134;2022-11-30T07:10:45;5.00;94.90
1812;DHT22;904;47.814;11.134;2022-11-30T07:13:19;5.10;95.00
1812;DHT22;904;47.814;11.134;2022-11-30T07:15:46;5.10;95.00
1812;DHT22;904;47.814;11.134;2022-11-30T07:18:13;5.10;95.10
1812;DHT22;904;47.814;11.134;2022-11-30T07:20:41;5.10;95.20
1812;DHT22;904;47.814;11.134;2022-11-30T07:23:08;5.10;95.10
1812;DHT22;904;47.814;11.134;2022-11-30T07:25:57;5.20;95.10
1812;DHT22;904;47.814;11.134;2022-11-30T07:28:39;5.20;95.10
1812;DHT22;904;47.814;11.134;2022-11-30T07:31:15;5.20;94.90
1812;DHT22;904;47.814;11.134;2022-11-30T07:33:45;5.20;94.80
1812;DHT22;904;47.814;11.134;2022-11-30T07:36:12;5.20;94.50
1812;DHT22;904;47.814;11.134;2022-11-30T07:38:40;5.20;94.30
1812;DHT22;904;47.814;11.134;2022-11-30T07:41:07;5.20;94.40
1812;DHT22;904;47.814;11.134;2022-11-30T07:43:36;5.20;94.50
1812;DHT22;904;47.814;11.134;2022-11-30T07:46:05;5.20;94.50
1812;DHT22;904;47.814;11.134;2022-11-30T07:48:33;5.30;94.50
1812;DHT22;904;47.814;11.134;2022-11-30T07:51:03;5.30;94.50
1812;DHT22;904;47.814;11.134;2022-11-30T07:53:35;5.20;94.20
1812;DHT22;904;47.814;11.134;2022-11-30T07:56:04;5.20;94.10
1812;DHT22;904;47.814;11.134;2022-11-30T07:58:31;5.20;94.20
1812;DHT22;904;47.814;11.134;2022-11-30T08:01:04;5.20;94.30
1812;DHT22;904;47.814;11.134;2022-11-30T08:03:32;5.20;94.40
1812;DHT22;904;47.814;11.134;2022-11-30T08:06:00;5.20;94.40
1812;DHT22;904;47.814;11.134;2022-11-30T08:08:30;5.30;94.50
1812;DHT22;904;47.814;11.134;2022-11-30T08:10:57;5.30;94.50
1812;DHT22;904;47.814;11.134;2022-11-30T08:13:25;5.30;94.50
1812;DHT22;904;47.814;11.134;2022-11-30T08:15:52;5.20;94.70
1812;DHT22;904;47.814;11.134;2022-11-30T08:18:20;5.20;95.30
1812;DHT22;904;47.814;11.134;2022-11-30T08:20:47;5.20;94.90
1812;DHT22;904;47.814;11.134;2022-11-30T08:23:23;5.30;95.00
1812;DHT22;904;47.814;11.134;2022-11-30T08:25:50;5.30;95.10
1812;DHT22;904;47.814;11.134;2022-11-30T08:28:18;5.30;95.10
1812;DHT22;904;47.814;11.134;2022-11-30T08:30:45;5.30;95.20
1812;DHT22;904;47.814;11.134;2022-11-30T08:33:12;5.40;95.10
1812;DHT22;904;47.814;11.134;2022-11-30T08:35:46;5.30;95.20
1812;DHT22;904;47.814;11.134;2022-11-30T08:38:20;5.40;95.60
1812;DHT22;904;47.814;11.134;2022-11-30T08:40:47;5.50;95.40
1812;DHT22;904;47.814;11.134;2022-11-30T08:43:14;5.50;95.40
1812;DHT22;904;47.814;11.134;2022-11-30T08:45:41;5.60;95.50
1812;DHT22;904;47.814;11.134;2022-11-30T08:48:08;5.60;95.50
1812;DHT22;904;47.814;11.134;2022-11-30T08:50:35;5.70;95.30
1812;DHT22;904;47.814;11.134;2022-11-30T08:53:04;5.60;95.00
1812;DHT22;904;47.814;11.134;2022-11-30T08:55:31;5.70;94.90
1812;DHT22;904;47.814;11.134;2022-11-30T08:57:58;5.70;94.90
1812;DHT22;904;47.814;11.134;2022-11-30T09:00:25;5.80;95.00
1812;DHT22;904;47.814;11.134;2022-11-30T09:02:52;5.80;95.00
1812;DHT22;904;47.814;11.134;2022-11-30T09:05:19;5.80;95.00
1812;DHT22;904;47.814;11.134;2022-11-30T09:07:46;5.90;94.80
1812;DHT22;904;47.814;11.134;2022-11-30T09:10:15;5.90;94.70
1812;DHT22;904;47.814;11.134;2022-11-30T09:12:42;6.00;94.50
1812;DHT22;904;47.814;11.134;2022-11-30T09:15:09;6.00;94.70
1812;DHT22;904;47.814;11.134;2022-11-30T09:17:36;6.00;94.90
1812;DHT22;904;47.814;11.134;2022-11-30T09:20:05;6.00;94.40
1812;DHT22;904;47.814;11.134;2022-11-30T09:22:32;6.00;94.30
1812;DHT22;904;47.814;11.134;2022-11-30T09:24:59;6.00;94.40
1812;DHT22;904;47.814;11.134;2022-11-30T09:27:30;6.00;94.60
1812;DHT22;904;47.814;11.134;2022-11-30T09:29:57;6.00;94.70
1812;DHT22;904;47.814;11.134;2022-11-30T09:32:24;6.10;95.00
1812;DHT22;904;47.814;11.134;2022-11-30T09:34:51;6.10;95.10
1812;DHT22;904;47.814;11.134;2022-11-30T09:37:19;6.20;95.10
1812;DHT22;904;47.814;11.134;2022-11-30T09:39:47;6.20;94.70
1812;DHT22;904;47.814;11.134;2022-11-30T09:42:44;6.20;94.80
1812;DHT22;904;47.814;11.134;2022-11-30T09:45:18;6.30;94.80
1812;DHT22;904;47.814;11.134;2022-11-30T09:48:06;6.30;94.90
1812;DHT22;904;47.814;11.134;2022-11-30T09:50:40;6.40;95.00
1812;DHT22;904;47.814;11.134;2022-11-30T09:53:11;6.40;95.00
1812;DHT22;904;47.814;11.134;2022-11-30T09:55:41;6.50;95.00
1812;DHT22;904;47.814;11.134;2022-11-30T09:58:22;6.50;95.00
1812;DHT22;904;47.814;11.134;2022-11-30T10:00:50;6.60;95.00
1812;DHT22;904;47.814;11.134;2022-11-30T10:03:21;6.60;94.40
1812;DHT22;904;47.814;11.134;2022-11-30T10:05:54;6.60;94.50
1812;DHT22;904;47.814;11.134;2022-11-30T10:08:45;6.70;94.70
1812;DHT22;904;47.814;11.134;2022-11-30T10:11:35;6.70;94.50
1812;DHT22;904;47.814;11.134;2022-11-30T10:17:00;6.70;94.20
1812;DHT22;904;47.814;11.134;2022-11-30T10:19:45;6.70;94.50
1812;DHT22;904;47.814;11.134;2022-11-30T10:22:23;6.80;94.30
1812;DHT22;904;47.814;11.134;2022-11-30T10:25:07;6.80;94.30
1812;DHT22;904;47.814;11.134;2022-11-30T10:27:48;6.80;94.00
1812;DHT22;904;47.814;11.134;2022-11-30T10:30:19;6.80;93.80
1812;DHT22;904;47.814;11.134;2022-11-30T10:32:50;6.70;93.30
1812;DHT22;904;47.814;11.134;2022-11-30T10:35:32;6.70;93.50
1812;DHT22;904;47.814;11.134;2022-11-30T10:38:08;6.60;93.60
1812;DHT22;904;47.814;11.134;2022-11-30T10:40:42;6.70;93.80
1812;DHT22;904;47.814;11.134;2022-11-30T10:43:17;6.70;93.60
1812;DHT22;904;47.814;11.134;2022-11-30T10:45:49;6.70;93.60
1812;DHT22;904;47.814;11.134;2022-11-30T10:48:20;6.80;93.40
1812;DHT22;904;47.814;11.134;2022-11-30T10:50:49;6.70;93.10
1812;DHT22;904;47.814;11.134;2022-11-30T10:53:17;6.70;93.10
1812;DHT22;904;47.814;11.134;2022-11-30T10:55:49;6.60;93.20
1812;DHT22;904;47.814;11.134;2022-11-30T10:58:21;6.60;93.10
1812;DHT22;904;47.814;11.134;2022-11-30T11:01:00;6.60;93.10
1812;DHT22;904;47.814;11.134;2022-11-30T11:03:27;6.60;93.10
1812;DHT22;904;47.814;11.134;2022-11-30T11:06:13;6.60;93.10
1812;DHT22;904;47.814;11.134;2022-11-30T11:08:41;6.50;93.00
1812;DHT22;904;47.814;11.134;2022-11-30T11:11:28;6.50;93.00
1812;DHT22;904;47.814;11.134;2022-11-30T11:14:11;6.50;92.90
1812;DHT22;904;47.814;11.134;2022-11-30T11:16:53;6.50;92.90
1812;DHT22;904;47.814;11.134;2022-11-30T11:22:16;6.50;93.30
1812;DHT22;904;47.814;11.134;2022-11-30T11:24:45;6.50;93.30
1812;DHT22;904;47.814;11.134;2022-11-30T11:27:22;6.50;93.10
1812;DHT22;904;47.814;11.134;2022-11-30T11:29:59;6.50;93.10
1812;DHT22;904;47.814;11.134;2022-11-30T11:32:29;6.50;93.30
1812;DHT22;904;47.814;11.134;2022-11-30T11:34:57;6.50;93.30
1812;DHT22;904;47.814;11.134;2022-11-30T11:37:28;6.50;93.30
1812;DHT22;904;47.814;11.134;2022-11-30T11:40:01;6.50;93.30
1812;DHT22;904;47.814;11.134;2022-11-30T11:42:32;6.50;93.50
1812;DHT22;904;47.814;11.134;2022-11-30T11:45:00;6.50;93.50
1812;DHT22;904;47.814;11.134;2022-11-30T11:47:37;6.50;93.50
1812;DHT22;904;47.814;11.134;2022-11-30T11:50:24;6.60;94.00
1812;DHT22;904;47.814;11.134;2022-11-30T11:53:11;6.60;93.60
1812;DHT22;904;47.814;11.134;2022-11-30T11:55:52;6.50;93.60
1812;DHT22;904;47.814;11.134;2022-11-30T11:58:36;6.60;93.50
1812;DHT22;904;47.814;11.134;2022-11-30T12:01:18;6.60;93.50
1812;DHT22;904;47.814;11.134;2022-11-30T12:04:01;6.60;93.60
1812;DHT22;904;47.814;11.134;2022-11-30T12:06:33;6.60;93.30
1812;DHT22;904;47.814;11.134;2022-11-30T12:09:09;6.60;93.10
1812;DHT22;904;47.814;11.134;2022-11-30T12:11:41;6.60;93.10
1812;DHT22;904;47.814;11.134;2022-11-30T12:14:11;6.60;92.80
1812;DHT22;904;47.814;11.134;2022-11-30T12:17:00;6.60;92.90
1812;DHT22;904;47.814;11.134;2022-11-30T12:19:36;6.60;93.00
1812;DHT22;904;47.814;11.134;2022-11-30T12:22:32;6.60;93.10
1812;DHT22;904;47.814;11.134;2022-11-30T12:25:17;6.60;93.10
1812;DHT22;904;47.814;11.134;2022-11-30T12:27:51;6.60;93.00
1812;DHT22;904;47.814;11.134;2022-11-30T12:30:28;6.60;93.20
1812;DHT22;904;47.814;11.134;2022-11-30T12:33:10;6.60;92.80
1812;DHT22;904;47.814;11.134;2022-11-30T12:35:59;6.60;92.80
1812;DHT22;904;47.814;11.134;2022-11-30T12:38:37;6.70;92.70
1812;DHT22;904;47.814;11.134;2022-11-30T12:41:21;6.60;92.60
1812;DHT22;904;47.814;11.134;2022-11-30T12:43:56;6.60;92.20
1812;DHT22;904;47.814;11.134;2022-11-30T12:46:35;6.50;92.30
1812;DHT22;904;47.814;11.134;2022-11-30T12:49:24;6.50;92.20
1812;DHT22;904;47.814;11.134;2022-11-30T12:52:01;6.50;92.20
1812;DHT22;904;47.814;11.134;2022-11-30T12:54:36;6.50;92.00
1812;DHT22;904;47.814;11.134;2022-11-30T12:57:12;6.50;91.80
1812;DHT22;904;47.814;11.134;2022-11-30T12:59:46;6.40;91.90
1812;DHT22;904;47.814;11.134;2022-11-30T13:02:47;6.40;91.90
1812;DHT22;904;47.814;11.134;2022-11-30T13:05:25;6.40;91.90
1812;DHT22;904;47.814;11.134;2022-11-30T13:08:02;6.40;91.90
1812;DHT22;904;47.814;11.134;2022-11-30T13:10:35;6.40;92.00
1812;DHT22;904;47.814;11.134;2022-11-30T13:13:07;6.40;92.00
1812;DHT22;904;47.814;11.134;2022-11-30T13:15:46;6.40;91.80
1812;DHT22;904;47.814;11.134;2022-11-30T13:18:19;6.30;91.60
1812;DHT22;904;47.814;11.134;2022-11-30T13:20:50;6.30;91.50
1812;DHT22;904;47.814;11.134;2022-11-30T13:23:26;6.30;91.50
1812;DHT22;904;47.814;11.134;2022-11-30T13:26:04;6.30;91.50
1812;DHT22;904;47.814;11.134;2022-11-30T13:28:45;6.30;91.10
1812;DHT22;904;47.814;11.134;2022-11-30T13:31:20;6.30;91.10
1812;DHT22;904;47.814;11.134;2022-11-30T13:33:56;6.30;90.70
1812;DHT22;904;47.814;11.134;2022-11-30T13:36:37;6.30;90.60
1812;DHT22;904;47.814;11.134;2022-11-30T13:39:19;6.30;90.60
1812;DHT22;904;47.814;11.134;2022-11-30T13:41:49;6.30;90.70
1812;DHT22;904;47.814;11.134;2022-11-30T13:44:28;6.30;90.80
1812;DHT22;904;47.814;11.134;2022-11-30T13:46:59;6.30;90.80
1812;DHT22;904;47.814;11.134;2022-11-30T13:49:29;6.30;90.90
1812;DHT22;904;47.814;11.134;2022-11-30T13:51:58;6.40;91.00
1812;DHT22;904;47.814;11.134;2022-11-30T13:54:41;6.30;90.90
1812;DHT22;904;47.814;11.134;2022-11-30T13:57:18;6.30;90.80
1812;DHT22;904;47.814;11.134;2022-11-30T14:03:27;6.40;91.10
1812;DHT22;904;47.814;11.134;2022-11-30T14:05:55;6.40;91.10
1812;DHT22;904;47.814;11.134;2022-11-30T14:08:34;6.40;91.20
1812;DHT22;904;47.814;11.134;2022-11-30T14:11:38;6.40;91.00
1812;DHT22;904;47.814;11.134;2022-11-30T14:14:40;6.40;91.00
1812;DHT22;904;47.814;11.134;2022-11-30T14:17:17;6.30;90.50
1812;DHT22;904;47.814;11.134;2022-11-30T14:19:46;6.30;90.60
1812;DHT22;904;47.814;11.134;2022-11-30T14:22:19;6.30;90.80
1812;DHT22;904;47.814;11.134;2022-11-30T14:24:48;6.30;90.90
1812;DHT22;904;47.814;11.134;2022-11-30T14:27:21;6.20;90.60
1812;DHT22;904;47.814;11.134;2022-11-30T14:29:51;6.20;90.70
1812;DHT22;904;47.814;11.134;2022-11-30T14:32:33;6.20;90.70
1812;DHT22;904;47.814;11.134;2022-11-30T14:35:07;6.20;90.90
1812;DHT22;904;47.814;11.134;2022-11-30T14:37:41;6.10;90.70
1812;DHT22;904;47.814;11.134;2022-11-30T14:40:14;6.20;90.70
1812;DHT22;904;47.814;11.134;2022-11-30T14:42:49;6.20;90.50
1812;DHT22;904;47.814;11.134;2022-11-30T14:45:20;6.20;90.50
1812;DHT22;904;47.814;11.134;2022-11-30T14:47:50;6.10;90.60
1812;DHT22;904;47.814;11.134;2022-11-30T14:50:24;6.10;90.70
1812;DHT22;904;47.814;11.134;2022-11-30T14:53:16;6.10;91.00
1812;DHT22;904;47.814;11.134;2022-11-30T14:55:49;6.10;91.10
1812;DHT22;904;47.814;11.134;2022-11-30T14:58:24;6.10;91.10
1812;DHT22;904;47.814;11.134;2022-11-30T15:01:04;6.00;91.00
1812;DHT22;904;47.814;11.134;2022-11-30T15:03:33;6.00;91.00
1812;DHT22;904;47.814;11.134;2022-11-30T15:06:04;6.00;91.10
1812;DHT22;904;47.814;11.134;2022-11-30T15:08:34;6.00;91.20
1812;DHT22;904;47.814;11.134;2022-11-30T15:11:04;5.90;91.30
1812;DHT22;904;47.814;11.134;2022-11-30T15:13:36;5.90;91.30
1812;DHT22;904;47.814;11.134;2022-11-30T15:16:08;5.90;91.10
1812;DHT22;904;47.814;11.134;2022-11-30T15:18:38;5.90;91.10
1812;DHT22;904;47.814;11.134;2022-11-30T15:21:11;5.90;91.10
1812;DHT22;904;47.814;11.134;2022-11-30T15:23:40;5.90;91.30
1812;DHT22;904;47.814;11.134;2022-11-30T15:26:12;5.90;91.20
1812;DHT22;904;47.814;11.134;2022-11-30T15:28:43;5.90;91.30
1812;DHT22;904;47.814;11.134;2022-11-30T15:31:15;5.90;91.40
1812;DHT22;904;47.814;11.134;2022-11-30T15:33:44;5.90;91.40
1812;DHT22;904;47.814;11.134;2022-11-30T15:36:13;5.80;91.50
1812;DHT22;904;47.814;11.134;2022-11-30T15:38:40;5.80;91.60
1812;DHT22;904;47.814;11.134;2022-11-30T15:41:17;5.80;91.60
1812;DHT22;904;47.814;11.134;2022-11-30T15:43:49;5.80;91.60
1812;DHT22;904;47.814;11.134;2022-11-30T15:46:29;5.80;91.60
1812;DHT22;904;47.814;11.134;2022-11-30T15:49:13;5.80;91.70
1812;DHT22;904;47.814;11.134;2022-11-30T15:51:42;5.90;91.70
1812;DHT22;904;47.814;11.134;2022-11-30T15:54:09;5.80;91.60
1812;DHT22;904;47.814;11.134;2022-11-30T15:56:36;5.80;91.90
1812;DHT22;904;47.814;11.134;2022-11-30T15:59:07;5.80;91.80
1812;DHT22;904;47.814;11.134;2022-11-30T16:01:53;5.80;91.40
1812;DHT22;904;47.814;11.134;2022-11-30T16:04:26;5.80;91.50
1812;DHT22;904;47.814;11.134;2022-11-30T16:06:54;5.70;91.60
1812;DHT22;904;47.814;11.134;2022-11-30T16:09:23;5.70;91.50
1812;DHT22;904;47.814;11.134;2022-11-30T16:11:53;5.70;91.50
1812;DHT22;904;47.814;11.134;2022-11-30T16:14:28;5.70;91.50
1812;DHT22;904;47.814;11.134;2022-11-30T16:16:56;5.80;91.50
1812;DHT22;904;47.814;11.134;2022-11-30T16:19:23;5.70;91.60
1812;DHT22;904;47.814;11.134;2022-11-30T16:21:52;5.70;91.20
1812;DHT22;904;47.814;11.134;2022-11-30T16:24:19;5.80;91.20
1812;DHT22;904;47.814;11.134;2022-11-30T16:26:46;5.80;91.10
1812;DHT22;904;47.814;11.134;2022-11-30T16:29:18;5.70;90.90
1812;DHT22;904;47.814;11.134;2022-11-30T16:31:47;5.80;90.80
1812;DHT22;904;47.814;11.134;2022-11-30T16:34:14;5.80;90.80
1812;DHT22;904;47.814;11.134;2022-11-30T16:36:41;5.70;90.70
1812;DHT22;904;47.814;11.134;2022-11-30T16:39:10;5.70;90.90
1812;DHT22;904;47.814;11.134;2022-11-30T16:41:40;5.70;90.90
1812;DHT22;904;47.814;11.134;2022-11-30T16:44:12;5.70;91.00
1812;DHT22;904;47.814;11.134;2022-11-30T16:46:40;5.70;91.10
1812;DHT22;904;47.814;11.134;2022-11-30T16:49:09;5.70;91.20
1812;DHT22;904;47.814;11.134;2022-11-30T16:51:36;5.70;91.40
1812;DHT22;904;47.814;11.134;2022-11-30T16:54:03;5.70;91.40
1812;DHT22;904;47.814;11.134;2022-11-30T16:56:30;5.70;91.50
1812;DHT22;904;47.814;11.134;2022-11-30T16:58:57;5.60;91.50
1812;DHT22;904;47.814;11.134;2022-11-30T17:01:27;5.60;91.40
1812;DHT22;904;47.814;11.134;2022-11-30T17:03:58;5.60;91.50
1812;DHT22;904;47.814;11.134;2022-11-30T17:06:26;5.60;91.50
1812;DHT22;904;47.814;11.134;2022-11-30T17:08:56;5.60;91.40